sensor_id;sensor_type;location;lat;lon;timestamp;pressure;altitude;pressure_sealevel;temperature;humidity
53699;BME280;39591;53.952;27.612;2023-02-28T00:01:51;1024.6;;;-2.7;63.9
53699;BME280;39591;53.952;27.612;2023-02-28T00:06:09;1024.5;;;-2.8;64
53699;BME280;39591;53.952;27.612;2023-02-28T00:11:21;1024.5;;;-2.9;64.2
53699;BME280;39591;53.952;27.612;2023-02-28T00:17:05;1024.5;;;-2.9;64.4
53699;BME280;39591;53.952;27.612;2023-02-28T00:21:21;1024.5;;;-3;64.5
53699;BME280;39591;53.952;27.612;2023-02-28T00:26:51;1024.4;;;-3;64.7
53699;BME280;39591;53.952;27.612;2023-02-28T00:31:09;1024.3;;;-2.9;64.7
53699;BME280;39591;53.952;27.612;2023-02-28T00:36:35;1024.3;;;-3;64.5
53699;BME280;39591;53.952;27.612;2023-02-28T00:41:51;1024.3;;;-3;64.7
53699;BME280;39591;53.952;27.612;2023-02-28T00:47:03;1024.3;;;-2.9;64.4
53699;BME280;39591;53.952;27.612;2023-02-28T00:51:51;1024.4;;;-2.8;64.2
53699;BME280;39591;53.952;27.612;2023-02-28T00:56:09;1024.4;;;-2.9;64.7
53699;BME280;39591;53.952;27.612;2023-02-28T01:01:51;1024.4;;;-3;65
53699;BME280;39591;53.952;27.612;2023-02-28T01:06:49;1024.4;;;-3.1;65.1
53699;BME280;39591;53.952;27.612;2023-02-28T01:12:06;1024.5;;;-3.3;65.5
53699;BME280;39591;53.952;27.612;2023-02-28T01:16:49;1024.5;;;-3.3;65.6
53699;BME280;39591;53.952;27.612;2023-02-28T01:21:10;1024.4;;;-3.4;65.8
53699;BME280;39591;53.952;27.612;2023-02-28T01:26:51;1024.4;;;-3.5;66.1
53699;BME280;39591;53.952;27.612;2023-02-28T01:31:33;1024.4;;;-3.7;66.4
53699;BME280;39591;53.952;27.612;2023-02-28T01:37:03;1024.3;;;-3.8;66.9
53699;BME280;39591;53.952;27.612;2023-02-28T01:41:49;1024.3;;;-4;67.3
53699;BME280;39591;53.952;27.612;2023-02-28T01:46:25;1024.3;;;-4.1;67.8
53699;BME280;39591;53.952;27.612;2023-02-28T01:51:51;1024.3;;;-4.2;68.3
53699;BME280;39591;53.952;27.612;2023-02-28T01:56:10;1024.4;;;-4.3;68.6
53699;BME280;39591;53.952;27.612;2023-02-28T02:02:03;1024.4;;;-4.4;68.9
53699;BME280;39591;53.952;27.612;2023-02-28T02:06:51;1024.4;;;-4.4;69.2
53699;BME280;39591;53.952;27.612;2023-02-28T02:11:35;1024.4;;;-4.5;69.3
53699;BME280;39591;53.952;27.612;2023-02-28T02:16:52;1024.4;;;-4.5;69.2
53699;BME280;39591;53.952;27.612;2023-02-28T02:21:41;1024.4;;;-4.5;69.3
53699;BME280;39591;53.952;27.612;2023-02-28T02:27:11;1024.5;;;-4.5;69.4
53699;BME280;39591;53.952;27.612;2023-02-28T02:31:54;1024.6;;;-4.5;69.5
53699;BME280;39591;53.952;27.612;2023-02-28T02:36:09;1024.6;;;-4.6;69.4
53699;BME280;39591;53.952;27.612;2023-02-28T02:41:50;1024.5;;;-4.6;69.4
53699;BME280;39591;53.952;27.612;2023-02-28T02:46:10;1024.5;;;-4.6;69.4
53699;BME280;39591;53.952;27.612;2023-02-28T02:52:06;1024.5;;;-4.7;69.5
53699;BME280;39591;53.952;27.612;2023-02-28T02:56:49;1024.4;;;-4.7;69.6
53699;BME280;39591;53.952;27.612;2023-02-28T03:01:10;1024.4;;;-4.7;69.6
53699;BME280;39591;53.952;27.612;2023-02-28T03:06:51;1024.4;;;-4.8;69.7
53699;BME280;39591;53.952;27.612;2023-02-28T03:11:35;1024.3;;;-4.8;69.7
53699;BME280;39591;53.952;27.612;2023-02-28T03:17:10;1024.3;;;-4.8;69.7
53699;BME280;39591;53.952;27.612;2023-02-28T03:21:54;1024.3;;;-4.9;69.6
53699;BME280;39591;53.952;27.612;2023-02-28T03:26:12;1024.3;;;-4.9;69.8
53699;BME280;39591;53.952;27.612;2023-02-28T03:31:52;1024.2;;;-5;69.9
53699;BME280;39591;53.952;27.612;2023-02-28T03:36:34;1024.3;;;-5;69.9
53699;BME280;39591;53.952;27.612;2023-02-28T03:42:07;1024.3;;;-5;69.9
53699;BME280;39591;53.952;27.612;2023-02-28T03:46:51;1024.3;;;-5.1;69.9
53699;BME280;39591;53.952;27.612;2023-02-28T03:51:22;1024.2;;;-5.1;70
53699;BME280;39591;53.952;27.612;2023-02-28T03:56:52;1024.1;;;-5.2;70.2
53699;BME280;39591;53.952;27.612;2023-02-28T04:01:22;1024;;;-5.2;70.3
53699;BME280;39591;53.952;27.612;2023-02-28T04:07:06;1024;;;-5.2;70.3
53699;BME280;39591;53.952;27.612;2023-02-28T04:11:52;1024;;;-5.3;70.4
53699;BME280;39591;53.952;27.612;2023-02-28T04:16:21;1024;;;-5.3;70.4
53699;BME280;39591;53.952;27.612;2023-02-28T04:21:52;1024;;;-5.3;70.5
53699;BME280;39591;53.952;27.612;2023-02-28T04:26:21;1024;;;-5.3;70.6
53699;BME280;39591;53.952;27.612;2023-02-28T04:32:05;1024;;;-5.4;70.5
53699;BME280;39591;53.952;27.612;2023-02-28T04:36:49;1024;;;-5.4;70.6
53699;BME280;39591;53.952;27.612;2023-02-28T04:41:09;1024;;;-5.4;70.6
53699;BME280;39591;53.952;27.612;2023-02-28T04:46:49;1024;;;-5.4;70.6
53699;BME280;39591;53.952;27.612;2023-02-28T04:51:47;1024;;;-5.4;70.5
53699;BME280;39591;53.952;27.612;2023-02-28T04:57:01;1024;;;-5.4;70.5
53699;BME280;39591;53.952;27.612;2023-02-28T05:01:49;1024;;;-5.4;70.3
53699;BME280;39591;53.952;27.612;2023-02-28T05:06:22;1024;;;-5.4;70.3
53699;BME280;39591;53.952;27.612;2023-02-28T05:11:49;1024.1;;;-5.3;70.1
53699;BME280;39591;53.952;27.612;2023-02-28T05:16:33;1024.2;;;-5.3;69.9
53699;BME280;39591;53.952;27.612;2023-02-28T05:22:03;1024.1;;;-5.3;69.6
53699;BME280;39591;53.952;27.612;2023-02-28T05:26:35;1024;;;-5.2;69.4
53699;BME280;39591;53.952;27.612;2023-02-28T05:31:10;1024;;;-5.2;69.1
53699;BME280;39591;53.952;27.612;2023-02-28T05:36:39;1023.9;;;-5.2;68.9
53699;BME280;39591;53.952;27.612;2023-02-28T05:41:09;1023.8;;;-5.2;68.7
53699;BME280;39591;53.952;27.612;2023-02-28T05:47:03;1023.8;;;-5.1;68.5
53699;BME280;39591;53.952;27.612;2023-02-28T05:51:19;1023.8;;;-5;68.2
53699;BME280;39591;53.952;27.612;2023-02-28T05:56:21;1023.8;;;-4.9;67.8
53699;BME280;39591;53.952;27.612;2023-02-28T06:01:49;1023.8;;;-4.9;67.5
53699;BME280;39591;53.952;27.612;2023-02-28T06:06:21;1023.7;;;-5;67.5
53699;BME280;39591;53.952;27.612;2023-02-28T06:11:33;1023.7;;;-4.9;67.3
53699;BME280;39591;53.952;27.612;2023-02-28T06:16:32;1023.7;;;-4.8;67.1
53699;BME280;39591;53.952;27.612;2023-02-28T06:21:09;1023.6;;;-4.8;66.9
53699;BME280;39591;53.952;27.612;2023-02-28T06:26:49;1023.5;;;-4.7;66.9
53699;BME280;39591;53.952;27.612;2023-02-28T06:31:33;1023.5;;;-4.5;66.7
53699;BME280;39591;53.952;27.612;2023-02-28T06:37:01;1023.5;;;-4.4;66.4
53699;BME280;39591;53.952;27.612;2023-02-28T06:41:33;1023.5;;;-4.2;66.2
53699;BME280;39591;53.952;27.612;2023-02-28T06:46:11;1023.4;;;-4;65.8
53699;BME280;39591;53.952;27.612;2023-02-28T06:51:35;1023.4;;;-3.8;65.2
53699;BME280;39591;53.952;27.612;2023-02-28T06:56:33;1023.3;;;-3.6;64.9
53699;BME280;39591;53.952;27.612;2023-02-28T07:02:03;1023.3;;;-3.4;64.3
53699;BME280;39591;53.952;27.612;2023-02-28T07:06:31;1023.4;;;-3.2;63.8
53699;BME280;39591;53.952;27.612;2023-02-28T07:11:22;1023.5;;;-3.1;63
53699;BME280;39591;53.952;27.612;2023-02-28T07:16:49;1023.4;;;-3.1;62.7
53699;BME280;39591;53.952;27.612;2023-02-28T07:21:33;1023.4;;;-3;62.7
53699;BME280;39591;53.952;27.612;2023-02-28T07:26:49;1023.3;;;-2.9;62.4
53699;BME280;39591;53.952;27.612;2023-02-28T07:31:21;1023.3;;;-2.8;62.4
53699;BME280;39591;53.952;27.612;2023-02-28T07:36:10;1023.3;;;-2.7;62.6
53699;BME280;39591;53.952;27.612;2023-02-28T07:41:49;1023.2;;;-2.5;62.3
53699;BME280;39591;53.952;27.612;2023-02-28T07:46:45;1023.2;;;-2.3;61.9
53699;BME280;39591;53.952;27.612;2023-02-28T07:52:03;1023.2;;;-2;61.5
53699;BME280;39591;53.952;27.612;2023-02-28T07:56:21;1023.1;;;-1.9;61.1
53699;BME280;39591;53.952;27.612;2023-02-28T08:01:19;1023;;;-1.7;61
53699;BME280;39591;53.952;27.612;2023-02-28T08:06:49;1023.1;;;-1.5;60.3
53699;BME280;39591;53.952;27.612;2023-02-28T08:11:31;1023.1;;;-1.4;60.2
53699;BME280;39591;53.952;27.612;2023-02-28T08:16:59;1023;;;-1.2;59.8
53699;BME280;39591;53.952;27.612;2023-02-28T08:21:33;1023;;;-1.1;59.9
53699;BME280;39591;53.952;27.612;2023-02-28T08:26:09;1023;;;-0.7;59.4
53699;BME280;39591;53.952;27.612;2023-02-28T08:31:47;1022.9;;;-0.3;58.6
53699;BME280;39591;53.952;27.612;2023-02-28T08:36:09;1022.9;;;-0.2;57.6
53699;BME280;39591;53.952;27.612;2023-02-28T08:42:01;1022.9;;;-0.1;57.3
53699;BME280;39591;53.952;27.612;2023-02-28T08:46:19;1022.8;;;0;56.7
53699;BME280;39591;53.952;27.612;2023-02-28T08:51:21;1022.9;;;0.2;56.3
53699;BME280;39591;53.952;27.612;2023-02-28T08:56:33;1022.9;;;0.3;55.8
53699;BME280;39591;53.952;27.612;2023-02-28T09:01:09;1022.8;;;0.5;55.5
53699;BME280;39591;53.952;27.612;2023-02-28T09:07:01;1022.8;;;0.6;55.1
53699;BME280;39591;53.952;27.612;2023-02-28T09:11:10;1022.8;;;0.8;54.9
53699;BME280;39591;53.952;27.612;2023-02-28T09:16:31;1022.7;;;1;54.5
53699;BME280;39591;53.952;27.612;2023-02-28T09:21:47;1022.6;;;1.2;53.8
53699;BME280;39591;53.952;27.612;2023-02-28T09:26:22;1022.4;;;1.3;53.3
53699;BME280;39591;53.952;27.612;2023-02-28T09:32:01;1022.4;;;1.4;53
53699;BME280;39591;53.952;27.612;2023-02-28T09:36:09;1022.4;;;1.4;52.6
53699;BME280;39591;53.952;27.612;2023-02-28T09:41:22;1022.3;;;1.4;52.4
53699;BME280;39591;53.952;27.612;2023-02-28T09:46:12;1022.3;;;1.5;52.1
53699;BME280;39591;53.952;27.612;2023-02-28T09:51:26;1022.4;;;1.5;50.8
53699;BME280;39591;53.952;27.612;2023-02-28T09:57:04;1022.4;;;1.6;50.8
53699;BME280;39591;53.952;27.612;2023-02-28T10:01:34;1022.3;;;1.8;50.9
53699;BME280;39591;53.952;27.612;2023-02-28T10:06:11;1022.4;;;2;50.1
53699;BME280;39591;53.952;27.612;2023-02-28T10:11:50;1022.4;;;2.1;48.5
53699;BME280;39591;53.952;27.612;2023-02-28T10:16:34;1022.4;;;2.1;47.2
53699;BME280;39591;53.952;27.612;2023-02-28T10:22:03;1022.4;;;2;46.4
53699;BME280;39591;53.952;27.612;2023-02-28T10:26:31;1022.3;;;1.9;46.2
53699;BME280;39591;53.952;27.612;2023-02-28T10:31:21;1022.1;;;1.9;46.7
53699;BME280;39591;53.952;27.612;2023-02-28T10:36:47;1022;;;1.8;46.4
53699;BME280;39591;53.952;27.612;2023-02-28T10:41:10;1021.8;;;1.8;47
53699;BME280;39591;53.952;27.612;2023-02-28T10:47:01;1021.7;;;1.9;47.1
53699;BME280;39591;53.952;27.612;2023-02-28T10:51:34;1021.6;;;2;46.8
53699;BME280;39591;53.952;27.612;2023-02-28T10:56:45;1021.5;;;2;46.8
53699;BME280;39591;53.952;27.612;2023-02-28T11:01:47;1021.3;;;2.2;46.2
53699;BME280;39591;53.952;27.612;2023-02-28T11:06:20;1021.3;;;2.2;46.1
53699;BME280;39591;53.952;27.612;2023-02-28T11:11:59;1021.2;;;2.1;46.3
53699;BME280;39591;53.952;27.612;2023-02-28T11:16:32;1021.1;;;2.3;46.3
53699;BME280;39591;53.952;27.612;2023-02-28T11:21:32;1021;;;2.4;46.1
53699;BME280;39591;53.952;27.612;2023-02-28T11:26:46;1020.9;;;2.5;45.8
53699;BME280;39591;53.952;27.612;2023-02-28T11:31:17;1020.8;;;2.5;45.7
53699;BME280;39591;53.952;27.612;2023-02-28T11:37:04;1020.7;;;2.5;45.4
53699;BME280;39591;53.952;27.612;2023-02-28T11:41:49;1020.5;;;2.6;45.8
53699;BME280;39591;53.952;27.612;2023-02-28T11:46:50;1020.4;;;2.6;45.7
53699;BME280;39591;53.952;27.612;2023-02-28T11:51:48;1020.5;;;2.6;46.4
53699;BME280;39591;53.952;27.612;2023-02-28T11:56:10;1020.5;;;2.8;46.2
53699;BME280;39591;53.952;27.612;2023-02-28T12:02:05;1020.5;;;3;46.3
53699;BME280;39591;53.952;27.612;2023-02-28T12:06:30;1020.4;;;3.1;46.1
53699;BME280;39591;53.952;27.612;2023-02-28T12:11:35;1020.3;;;3.2;46.5
53699;BME280;39591;53.952;27.612;2023-02-28T12:16:53;1020.3;;;3.3;46.9
53699;BME280;39591;53.952;27.612;2023-02-28T12:21:10;1020.1;;;3.5;46.5
53699;BME280;39591;53.952;27.612;2023-02-28T12:27:03;1020.1;;;3.4;46.4
53699;BME280;39591;53.952;27.612;2023-02-28T12:31:33;1020;;;3.5;46.2
53699;BME280;39591;53.952;27.612;2023-02-28T12:36:10;1019.9;;;3.5;46.4
53699;BME280;39591;53.952;27.612;2023-02-28T12:41:51;1019.7;;;3.4;46.6
53699;BME280;39591;53.952;27.612;2023-02-28T12:46:11;1019.6;;;3.3;47.1
53699;BME280;39591;53.952;27.612;2023-02-28T12:51:37;1019.6;;;3.3;46.9
53699;BME280;39591;53.952;27.612;2023-02-28T12:56:11;1019.6;;;3.4;46.8
53699;BME280;39591;53.952;27.612;2023-02-28T13:01:56;1019.6;;;3.4;46.6
53699;BME280;39591;53.952;27.612;2023-02-28T13:07:08;1019.6;;;3.4;46.7
53699;BME280;39591;53.952;27.612;2023-02-28T13:11:39;1019.5;;;3.4;47
53699;BME280;39591;53.952;27.612;2023-02-28T13:16:51;1019.4;;;3.5;46.9
53699;BME280;39591;53.952;27.612;2023-02-28T13:21:32;1019.3;;;3.5;46.9
53699;BME280;39591;53.952;27.612;2023-02-28T13:27:24;1019.3;;;3.6;46.9
53699;BME280;39591;53.952;27.612;2023-02-28T13:32:19;1019.1;;;3.6;46.9
53699;BME280;39591;53.952;27.612;2023-02-28T13:36:26;1019.1;;;3.5;47.1
53699;BME280;39591;53.952;27.612;2023-02-28T13:41:51;1019.1;;;3.5;47.4
53699;BME280;39591;53.952;27.612;2023-02-28T13:46:34;1019;;;3.5;47.6
53699;BME280;39591;53.952;27.612;2023-02-28T13:51:51;1019.1;;;3.7;47.3
53699;BME280;39591;53.952;27.612;2023-02-28T13:57:03;1019.1;;;3.8;46.8
53699;BME280;39591;53.952;27.612;2023-02-28T14:02:33;1018.9;;;3.8;46.9
53699;BME280;39591;53.952;27.612;2023-02-28T14:06:51;1018.9;;;3.9;46.7
53699;BME280;39591;53.952;27.612;2023-02-28T14:11:40;1018.6;;;3.9;46.9
53699;BME280;39591;53.952;27.612;2023-02-28T14:16:51;1018.5;;;4;46.8
53699;BME280;39591;53.952;27.612;2023-02-28T14:21:35;1018.4;;;4.2;46.5
53699;BME280;39591;53.952;27.612;2023-02-28T14:26:12;1018.4;;;4.2;46.4
53699;BME280;39591;53.952;27.612;2023-02-28T14:31:51;1018.4;;;4.2;46.4
53699;BME280;39591;53.952;27.612;2023-02-28T14:36:34;1018.6;;;4.1;46.5
53699;BME280;39591;53.952;27.612;2023-02-28T14:41:49;1018.6;;;3.9;46.9
53699;BME280;39591;53.952;27.612;2023-02-28T14:47:02;1018.6;;;3.7;47.3
53699;BME280;39591;53.952;27.612;2023-02-28T14:51:22;1018.6;;;3.5;47.9
53699;BME280;39591;53.952;27.612;2023-02-28T14:56:17;1018.6;;;3.2;48.4
53699;BME280;39591;53.952;27.612;2023-02-28T15:01:31;1018.6;;;3.1;49
53699;BME280;39591;53.952;27.612;2023-02-28T15:07:06;1018.6;;;2.8;49.9
53699;BME280;39591;53.952;27.612;2023-02-28T15:12:03;1018.8;;;2.8;50.2
53699;BME280;39591;53.952;27.612;2023-02-28T15:16:10;1018.8;;;2.6;50.7
53699;BME280;39591;53.952;27.612;2023-02-28T15:21:52;1018.8;;;2.4;51.2
53699;BME280;39591;53.952;27.612;2023-02-28T15:26:10;1018.7;;;2.3;51.6
53699;BME280;39591;53.952;27.612;2023-02-28T15:31:55;1018.7;;;2.2;52
53699;BME280;39591;53.952;27.612;2023-02-28T15:37:01;1018.7;;;2.1;52.4
53699;BME280;39591;53.952;27.612;2023-02-28T15:41:21;1018.7;;;2.1;52.7
53699;BME280;39591;53.952;27.612;2023-02-28T15:46:53;1018.7;;;1.9;53.2
53699;BME280;39591;53.952;27.612;2023-02-28T15:51:22;1018.7;;;1.9;53.5
53699;BME280;39591;53.952;27.612;2023-02-28T15:56:50;1018.7;;;1.9;53.7
53699;BME280;39591;53.952;27.612;2023-02-28T16:02:02;1018.6;;;1.9;53.9
53699;BME280;39591;53.952;27.612;2023-02-28T16:06:53;1018.6;;;2;53.9
53699;BME280;39591;53.952;27.612;2023-02-28T16:11:37;1018.6;;;2;54
53699;BME280;39591;53.952;27.612;2023-02-28T16:16:33;1018.7;;;2;54.1
53699;BME280;39591;53.952;27.612;2023-02-28T16:21:51;1018.7;;;2.1;54.2
53699;BME280;39591;53.952;27.612;2023-02-28T16:27:01;1018.8;;;2;54.5
53699;BME280;39591;53.952;27.612;2023-02-28T16:31:09;1018.9;;;2;54.5
53699;BME280;39591;53.952;27.612;2023-02-28T16:36:49;1018.9;;;2;54.7
53699;BME280;39591;53.952;27.612;2023-02-28T16:41:31;1018.8;;;2;54.9
53699;BME280;39591;53.952;27.612;2023-02-28T16:46:51;1018.8;;;2.2;54.8
53699;BME280;39591;53.952;27.612;2023-02-28T16:52:01;1018.8;;;2.1;54.9
53699;BME280;39591;53.952;27.612;2023-02-28T16:56:13;1018.8;;;2.2;54.7
53699;BME280;39591;53.952;27.612;2023-02-28T17:01:51;1018.7;;;2.2;54.8
53699;BME280;39591;53.952;27.612;2023-02-28T17:06:33;1018.6;;;2.2;54.9
53699;BME280;39591;53.952;27.612;2023-02-28T17:11:52;1018.7;;;2.2;55
53699;BME280;39591;53.952;27.612;2023-02-28T17:16:37;1018.7;;;2.2;55.1
53699;BME280;39591;53.952;27.612;2023-02-28T17:21:23;1018.6;;;2.2;55.1
53699;BME280;39591;53.952;27.612;2023-02-28T17:26:38;1018.6;;;2.1;55.4
53699;BME280;39591;53.952;27.612;2023-02-28T17:31:47;1018.6;;;2.1;55.6
53699;BME280;39591;53.952;27.612;2023-02-28T17:36:48;1018.6;;;2.1;55.7
53699;BME280;39591;53.952;27.612;2023-02-28T17:41:38;1018.6;;;2.2;55.7
53699;BME280;39591;53.952;27.612;2023-02-28T17:46:49;1018.5;;;2.3;55.7
53699;BME280;39591;53.952;27.612;2023-02-28T17:51:23;1018.5;;;2.3;55.9
53699;BME280;39591;53.952;27.612;2023-02-28T17:56:47;1018.4;;;2.3;56.3
53699;BME280;39591;53.952;27.612;2023-02-28T18:02:01;1018.4;;;2.3;56.5
53699;BME280;39591;53.952;27.612;2023-02-28T18:06:36;1018.4;;;2.3;56.7
53699;BME280;39591;53.952;27.612;2023-02-28T18:11:21;1018.3;;;2.4;57
53699;BME280;39591;53.952;27.612;2023-02-28T18:16:37;1018.2;;;2.4;57.5
53699;BME280;39591;53.952;27.612;2023-02-28T18:21:46;1018.1;;;2.4;57.7
53699;BME280;39591;53.952;27.612;2023-02-28T18:27:01;1018;;;2.4;58
53699;BME280;39591;53.952;27.612;2023-02-28T18:31:37;1017.9;;;2.4;58.2
53699;BME280;39591;53.952;27.612;2023-02-28T18:36:09;1017.7;;;2.4;58
53699;BME280;39591;53.952;27.612;2023-02-28T18:41:10;1017.5;;;2.4;58.1
53699;BME280;39591;53.952;27.612;2023-02-28T18:46:48;1017.5;;;2.3;58.1
53699;BME280;39591;53.952;27.612;2023-02-28T18:52:04;1017.4;;;2.3;58
53699;BME280;39591;53.952;27.612;2023-02-28T18:56:38;1017.3;;;2.2;57.8
53699;BME280;39591;53.952;27.612;2023-02-28T19:01:23;1017.3;;;2.1;58.1
53699;BME280;39591;53.952;27.612;2023-02-28T19:06:23;1017.2;;;2.1;58.3
53699;BME280;39591;53.952;27.612;2023-02-28T19:11:47;1017;;;2;58.8
53699;BME280;39591;53.952;27.612;2023-02-28T19:17:03;1016.9;;;1.9;59.7
53699;BME280;39591;53.952;27.612;2023-02-28T19:21:23;1017;;;1.9;60.4
53699;BME280;39591;53.952;27.612;2023-02-28T19:26:35;1016.9;;;1.8;61.2
53699;BME280;39591;53.952;27.612;2023-02-28T19:31:37;1016.8;;;1.8;61.9
53699;BME280;39591;53.952;27.612;2023-02-28T19:36:47;1016.6;;;1.8;62.4
53699;BME280;39591;53.952;27.612;2023-02-28T19:42:03;1016.6;;;1.8;63.2
53699;BME280;39591;53.952;27.612;2023-02-28T19:46:09;1016.5;;;1.8;63.5
53699;BME280;39591;53.952;27.612;2023-02-28T19:51:23;1016.4;;;1.8;64.3
53699;BME280;39591;53.952;27.612;2023-02-28T19:56:49;1016.3;;;1.8;65.1
53699;BME280;39591;53.952;27.612;2023-02-28T20:01:45;1016.3;;;1.8;65.7
53699;BME280;39591;53.952;27.612;2023-02-28T20:07:03;1016.3;;;1.8;66.4
53699;BME280;39591;53.952;27.612;2023-02-28T20:11:37;1016.3;;;1.9;66.7
53699;BME280;39591;53.952;27.612;2023-02-28T20:16:23;1016.2;;;2;66.8
53699;BME280;39591;53.952;27.612;2023-02-28T20:21:35;1016.1;;;2;66.9
53699;BME280;39591;53.952;27.612;2023-02-28T20:26:23;1016;;;2.1;67.1
53699;BME280;39591;53.952;27.612;2023-02-28T20:32:03;1016;;;2.1;67.1
53699;BME280;39591;53.952;27.612;2023-02-28T20:36:09;1016;;;2.2;67.3
53699;BME280;39591;53.952;27.612;2023-02-28T20:41:09;1016;;;2.2;67.4
53699;BME280;39591;53.952;27.612;2023-02-28T20:46:37;1016.1;;;2.3;67.4
53699;BME280;39591;53.952;27.612;2023-02-28T20:51:47;1016.1;;;2.3;67.4
53699;BME280;39591;53.952;27.612;2023-02-28T20:57:01;1016.1;;;2.3;67.5
53699;BME280;39591;53.952;27.612;2023-02-28T21:01:37;1016;;;2.4;67.5
53699;BME280;39591;53.952;27.612;2023-02-28T21:06:09;1016;;;2.4;67.7
53699;BME280;39591;53.952;27.612;2023-02-28T21:11:36;1016;;;2.5;67.7
53699;BME280;39591;53.952;27.612;2023-02-28T21:16:33;1015.9;;;2.4;67.8
53699;BME280;39591;53.952;27.612;2023-02-28T21:22:03;1015.9;;;2.4;68
53699;BME280;39591;53.952;27.612;2023-02-28T21:26:47;1015.9;;;2.5;67.8
53699;BME280;39591;53.952;27.612;2023-02-28T21:31:24;1015.9;;;2.5;67.9
53699;BME280;39591;53.952;27.612;2023-02-28T21:36:36;1015.9;;;2.5;67.9
53699;BME280;39591;53.952;27.612;2023-02-28T21:41:33;1015.9;;;2.4;68
53699;BME280;39591;53.952;27.612;2023-02-28T21:47:01;1015.9;;;2.4;68
53699;BME280;39591;53.952;27.612;2023-02-28T21:51:35;1015.9;;;2.4;68.1
53699;BME280;39591;53.952;27.612;2023-02-28T21:56:24;1015.9;;;2.4;68.1
53699;BME280;39591;53.952;27.612;2023-02-28T22:01:10;1016;;;2.5;68.1
53699;BME280;39591;53.952;27.612;2023-02-28T22:06:48;1015.9;;;2.5;68.2
53699;BME280;39591;53.952;27.612;2023-02-28T22:12:03;1015.9;;;2.5;68.2
53699;BME280;39591;53.952;27.612;2023-02-28T22:16:45;1015.9;;;2.5;68.2
53699;BME280;39591;53.952;27.612;2023-02-28T22:21:23;1016;;;2.6;68.1
53699;BME280;39591;53.952;27.612;2023-02-28T22:26:37;1015.9;;;2.6;68.2
53699;BME280;39591;53.952;27.612;2023-02-28T22:31:47;1015.9;;;2.6;68.2
53699;BME280;39591;53.952;27.612;2023-02-28T22:37:03;1015.9;;;2.6;68.3
53699;BME280;39591;53.952;27.612;2023-02-28T22:41:45;1015.9;;;2.6;68.6
53699;BME280;39591;53.952;27.612;2023-02-28T22:46:10;1015.9;;;2.6;70.2
53699;BME280;39591;53.952;27.612;2023-02-28T22:51:37;1015.8;;;2.6;72.7
53699;BME280;39591;53.952;27.612;2023-02-28T22:56:45;1015.8;;;2.5;76.2
53699;BME280;39591;53.952;27.612;2023-02-28T23:02:03;1015.7;;;2.5;73.5
53699;BME280;39591;53.952;27.612;2023-02-28T23:06:38;1015.6;;;2.5;73.2
53699;BME280;39591;53.952;27.612;2023-02-28T23:11:24;1015.7;;;2.4;73.5
53699;BME280;39591;53.952;27.612;2023-02-28T23:16:48;1015.6;;;2.4;73.8
53699;BME280;39591;53.952;27.612;2023-02-28T23:21:35;1015.6;;;2.4;73.9
53699;BME280;39591;53.952;27.612;2023-02-28T23:27:00;1015.6;;;2.3;74.2
53699;BME280;39591;53.952;27.612;2023-02-28T23:31:57;1015.6;;;2.3;74.4
53699;BME280;39591;53.952;27.612;2023-02-28T23:36:10;1015.6;;;2.3;74.6
53699;BME280;39591;53.952;27.612;2023-02-28T23:41:43;1015.6;;;2.3;75.2
53699;BME280;39591;53.952;27.612;2023-02-28T23:46:44;1015.5;;;2.3;75
53699;BME280;39591;53.952;27.612;2023-02-28T23:51:59;1015.4;;;2.4;75.1
53699;BME280;39591;53.952;27.612;2023-02-28T23:56:43;1015.4;;;2.4;75
